sensor_id;sensor_type;location;lat;lon;timestamp;temperature;humidity
22607;DHT22;11470;20.968;105.834;2023-03-30T00:04:05;17.70;99.90
22607;DHT22;11470;20.968;105.834;2023-03-30T00:09:11;17.80;99.90
22607;DHT22;11470;20.968;105.834;2023-03-30T00:14:17;17.70;99.90
22607;DHT22;11470;20.968;105.834;2023-03-30T00:19:26;17.80;99.90
22607;DHT22;11470;20.968;105.834;2023-03-30T00:24:33;17.80;99.90
22607;DHT22;11470;20.968;105.834;2023-03-30T00:29:39;18.00;99.90
22607;DHT22;11470;20.968;105.834;2023-03-30T00:34:45;17.80;99.90
22607;DHT22;11470;20.968;105.834;2023-03-30T00:39:50;17.80;99.90
22607;DHT22;11470;20.968;105.834;2023-03-30T00:50:34;17.30;99.90
22607;DHT22;11470;20.968;105.834;2023-03-30T00:55:42;17.40;99.90
22607;DHT22;11470;20.968;105.834;2023-03-30T01:00:49;17.20;99.90
22607;DHT22;11470;20.968;105.834;2023-03-30T01:05:57;17.50;99.90
22607;DHT22;11470;20.968;105.834;2023-03-30T01:11:05;17.30;99.90
22607;DHT22;11470;20.968;105.834;2023-03-30T01:26:56;17.30;99.90
22607;DHT22;11470;20.968;105.834;2023-03-30T01:54:21;18.10;99.90
22607;DHT22;11470;20.968;105.834;2023-03-30T01:59:33;18.10;99.90
22607;DHT22;11470;20.968;105.834;2023-03-30T02:04:42;18.10;99.90
22607;DHT22;11470;20.968;105.834;2023-03-30T02:09:53;18.20;99.90
22607;DHT22;11470;20.968;105.834;2023-03-30T02:15:03;18.30;99.90
22607;DHT22;11470;20.968;105.834;2023-03-30T02:20:12;18.30;99.90
22607;DHT22;11470;20.968;105.834;2023-03-30T02:25:20;18.30;99.90
22607;DHT22;11470;20.968;105.834;2023-03-30T02:30:35;18.30;99.90
22607;DHT22;11470;20.968;105.834;2023-03-30T02:47:06;18.50;99.90
22607;DHT22;11470;20.968;105.834;2023-03-30T03:03:37;18.80;99.90
22607;DHT22;11470;20.968;105.834;2023-03-30T03:08:45;18.80;99.90
22607;DHT22;11470;20.968;105.834;2023-03-30T03:13:59;18.70;99.90
22607;DHT22;11470;20.968;105.834;2023-03-30T03:19:08;18.70;99.90
22607;DHT22;11470;20.968;105.834;2023-03-30T03:24:15;18.80;99.90
22607;DHT22;11470;20.968;105.834;2023-03-30T03:29:45;18.80;99.90
22607;DHT22;11470;20.968;105.834;2023-03-30T03:34:51;18.90;99.90
22607;DHT22;11470;20.968;105.834;2023-03-30T03:39:59;18.70;99.90
22607;DHT22;11470;20.968;105.834;2023-03-30T03:45:06;18.80;99.90
22607;DHT22;11470;20.968;105.834;2023-03-30T03:50:25;18.90;99.90
22607;DHT22;11470;20.968;105.834;2023-03-30T03:55:31;19.00;99.90
22607;DHT22;11470;20.968;105.834;2023-03-30T04:00:39;18.90;99.90
22607;DHT22;11470;20.968;105.834;2023-03-30T04:05:46;18.90;99.90
22607;DHT22;11470;20.968;105.834;2023-03-30T04:10:52;18.90;99.90
22607;DHT22;11470;20.968;105.834;2023-03-30T04:16:05;18.90;99.90
22607;DHT22;11470;20.968;105.834;2023-03-30T04:21:32;19.00;99.90
22607;DHT22;11470;20.968;105.834;2023-03-30T04:27:11;19.00;99.90
22607;DHT22;11470;20.968;105.834;2023-03-30T04:32:44;19.00;99.90
22607;DHT22;11470;20.968;105.834;2023-03-30T04:38:18;18.90;99.90
22607;DHT22;11470;20.968;105.834;2023-03-30T04:44:03;19.00;99.90
22607;DHT22;11470;20.968;105.834;2023-03-30T04:49:32;19.00;99.90
22607;DHT22;11470;20.968;105.834;2023-03-30T04:55:19;19.10;99.90
22607;DHT22;11470;20.968;105.834;2023-03-30T05:00:58;19.20;99.90
22607;DHT22;11470;20.968;105.834;2023-03-30T05:06:23;19.20;99.90
22607;DHT22;11470;20.968;105.834;2023-03-30T05:11:51;19.30;99.90
22607;DHT22;11470;20.968;105.834;2023-03-30T05:17:09;19.60;99.90
22607;DHT22;11470;20.968;105.834;2023-03-30T05:22:37;19.50;99.90
22607;DHT22;11470;20.968;105.834;2023-03-30T05:27:53;20.00;99.90
22607;DHT22;11470;20.968;105.834;2023-03-30T05:33:15;20.70;99.90
22607;DHT22;11470;20.968;105.834;2023-03-30T05:38:50;21.40;99.90
22607;DHT22;11470;20.968;105.834;2023-03-30T05:44:19;22.30;99.90
22607;DHT22;11470;20.968;105.834;2023-03-30T05:49:44;22.40;99.90
22607;DHT22;11470;20.968;105.834;2023-03-30T05:55:09;22.20;99.90
22607;DHT22;11470;20.968;105.834;2023-03-30T06:00:26;21.50;99.90
22607;DHT22;11470;20.968;105.834;2023-03-30T06:05:45;22.00;99.90
22607;DHT22;11470;20.968;105.834;2023-03-30T06:10:53;22.20;99.90
22607;DHT22;11470;20.968;105.834;2023-03-30T06:16:04;21.70;99.90
22607;DHT22;11470;20.968;105.834;2023-03-30T06:21:11;21.70;99.90
22607;DHT22;11470;20.968;105.834;2023-03-30T06:26:37;21.90;99.90
22607;DHT22;11470;20.968;105.834;2023-03-30T06:31:45;21.90;99.90
22607;DHT22;11470;20.968;105.834;2023-03-30T06:37:10;22.00;99.90
22607;DHT22;11470;20.968;105.834;2023-03-30T06:42:20;21.90;99.90
22607;DHT22;11470;20.968;105.834;2023-03-30T06:47:46;22.30;99.90
22607;DHT22;11470;20.968;105.834;2023-03-30T06:52:52;22.50;99.90
22607;DHT22;11470;20.968;105.834;2023-03-30T06:58:01;22.30;99.90
22607;DHT22;11470;20.968;105.834;2023-03-30T07:03:08;21.90;99.90
22607;DHT22;11470;20.968;105.834;2023-03-30T07:08:29;21.80;99.90
22607;DHT22;11470;20.968;105.834;2023-03-30T07:13:35;21.70;99.90
22607;DHT22;11470;20.968;105.834;2023-03-30T07:18:42;22.10;99.90
22607;DHT22;11470;20.968;105.834;2023-03-30T07:23:49;22.00;99.90
22607;DHT22;11470;20.968;105.834;2023-03-30T07:29:07;22.00;99.90
22607;DHT22;11470;20.968;105.834;2023-03-30T07:34:16;22.00;99.90
22607;DHT22;11470;20.968;105.834;2023-03-30T07:39:28;22.10;99.90
22607;DHT22;11470;20.968;105.834;2023-03-30T07:44:40;22.00;99.90
22607;DHT22;11470;20.968;105.834;2023-03-30T07:49:51;22.10;99.90
22607;DHT22;11470;20.968;105.834;2023-03-30T07:55:02;22.00;99.90
22607;DHT22;11470;20.968;105.834;2023-03-30T08:00:19;21.80;99.90
22607;DHT22;11470;20.968;105.834;2023-03-30T08:06:01;21.90;99.90
22607;DHT22;11470;20.968;105.834;2023-03-30T08:11:25;22.10;99.90
22607;DHT22;11470;20.968;105.834;2023-03-30T08:16:31;22.10;99.90
22607;DHT22;11470;20.968;105.834;2023-03-30T08:21:37;22.10;99.90
22607;DHT22;11470;20.968;105.834;2023-03-30T08:26:43;22.10;99.90
22607;DHT22;11470;20.968;105.834;2023-03-30T08:31:50;22.10;99.90
22607;DHT22;11470;20.968;105.834;2023-03-30T08:36:56;22.30;99.90
22607;DHT22;11470;20.968;105.834;2023-03-30T08:47:35;22.30;99.90
22607;DHT22;11470;20.968;105.834;2023-03-30T08:52:43;22.20;99.90
22607;DHT22;11470;20.968;105.834;2023-03-30T08:58:04;22.10;99.90
22607;DHT22;11470;20.968;105.834;2023-03-30T09:08:51;22.10;99.90
22607;DHT22;11470;20.968;105.834;2023-03-30T09:13:59;22.20;99.90
22607;DHT22;11470;20.968;105.834;2023-03-30T09:19:16;22.10;99.90
22607;DHT22;11470;20.968;105.834;2023-03-30T09:24:26;22.00;99.90
22607;DHT22;11470;20.968;105.834;2023-03-30T09:29:49;22.00;99.90
22607;DHT22;11470;20.968;105.834;2023-03-30T09:40:44;22.00;99.90
22607;DHT22;11470;20.968;105.834;2023-03-30T09:45:52;22.00;99.90
22607;DHT22;11470;20.968;105.834;2023-03-30T09:50:58;22.00;99.90
22607;DHT22;11470;20.968;105.834;2023-03-30T09:56:15;21.80;99.90
22607;DHT22;11470;20.968;105.834;2023-03-30T10:01:22;21.70;99.90
22607;DHT22;11470;20.968;105.834;2023-03-30T10:06:49;21.50;99.90
22607;DHT22;11470;20.968;105.834;2023-03-30T10:11:55;21.40;99.90
22607;DHT22;11470;20.968;105.834;2023-03-30T10:17:04;21.20;99.90
22607;DHT22;11470;20.968;105.834;2023-03-30T10:22:18;21.10;99.90
22607;DHT22;11470;20.968;105.834;2023-03-30T10:27:34;21.00;99.90
22607;DHT22;11470;20.968;105.834;2023-03-30T10:32:45;20.90;99.90
22607;DHT22;11470;20.968;105.834;2023-03-30T10:37:56;20.80;99.90
22607;DHT22;11470;20.968;105.834;2023-03-30T10:43:05;20.80;99.90
22607;DHT22;11470;20.968;105.834;2023-03-30T10:59:50;20.50;99.90
22607;DHT22;11470;20.968;105.834;2023-03-30T11:10:18;20.30;99.90
22607;DHT22;11470;20.968;105.834;2023-03-30T11:15:34;20.30;99.90
22607;DHT22;11470;20.968;105.834;2023-03-30T11:21:14;20.30;99.90
22607;DHT22;11470;20.968;105.834;2023-03-30T11:37:41;20.20;99.90
22607;DHT22;11470;20.968;105.834;2023-03-30T11:42:51;20.20;99.90
22607;DHT22;11470;20.968;105.834;2023-03-30T11:48:02;20.10;99.90
22607;DHT22;11470;20.968;105.834;2023-03-30T12:04:04;20.10;99.90
22607;DHT22;11470;20.968;105.834;2023-03-30T12:20:31;20.00;99.90
22607;DHT22;11470;20.968;105.834;2023-03-30T12:42:49;19.90;99.90
22607;DHT22;11470;20.968;105.834;2023-03-30T12:48:28;19.90;99.90
22607;DHT22;11470;20.968;105.834;2023-03-30T12:54:02;19.90;99.90
22607;DHT22;11470;20.968;105.834;2023-03-30T13:04:44;20.00;99.90
22607;DHT22;11470;20.968;105.834;2023-03-30T13:10:43;19.90;99.90
22607;DHT22;11470;20.968;105.834;2023-03-30T13:15:51;20.10;99.90
22607;DHT22;11470;20.968;105.834;2023-03-30T13:21:19;20.00;99.90
22607;DHT22;11470;20.968;105.834;2023-03-30T13:26:39;20.00;99.90
22607;DHT22;11470;20.968;105.834;2023-03-30T13:38:23;19.90;99.90
22607;DHT22;11470;20.968;105.834;2023-03-30T13:49:21;19.80;99.90
22607;DHT22;11470;20.968;105.834;2023-03-30T13:54:38;19.80;99.90
22607;DHT22;11470;20.968;105.834;2023-03-30T14:05:50;19.80;99.90
22607;DHT22;11470;20.968;105.834;2023-03-30T14:16:47;19.60;99.90
22607;DHT22;11470;20.968;105.834;2023-03-30T14:22:37;19.50;99.90
22607;DHT22;11470;20.968;105.834;2023-03-30T14:27:40;19.40;99.90
22607;DHT22;11470;20.968;105.834;2023-03-30T14:33:03;19.30;99.90
22607;DHT22;11470;20.968;105.834;2023-03-30T14:38:33;19.20;99.90
22607;DHT22;11470;20.968;105.834;2023-03-30T14:43:52;19.20;99.90
22607;DHT22;11470;20.968;105.834;2023-03-30T14:49:02;19.20;99.90
22607;DHT22;11470;20.968;105.834;2023-03-30T14:54:30;19.30;99.90
22607;DHT22;11470;20.968;105.834;2023-03-30T14:59:52;19.30;99.90
22607;DHT22;11470;20.968;105.834;2023-03-30T15:05:15;19.30;99.90
22607;DHT22;11470;20.968;105.834;2023-03-30T15:10:36;19.30;99.90
22607;DHT22;11470;20.968;105.834;2023-03-30T15:15:48;19.30;99.90
22607;DHT22;11470;20.968;105.834;2023-03-30T15:20:55;19.40;99.90
22607;DHT22;11470;20.968;105.834;2023-03-30T15:26:05;19.40;99.90
22607;DHT22;11470;20.968;105.834;2023-03-30T15:31:13;19.40;99.90
22607;DHT22;11470;20.968;105.834;2023-03-30T15:36:33;19.40;99.90
22607;DHT22;11470;20.968;105.834;2023-03-30T15:46:56;19.40;99.90
22607;DHT22;11470;20.968;105.834;2023-03-30T15:52:18;19.30;99.90
22607;DHT22;11470;20.968;105.834;2023-03-30T15:57:29;19.30;99.90
22607;DHT22;11470;20.968;105.834;2023-03-30T16:02:37;19.30;99.90
22607;DHT22;11470;20.968;105.834;2023-03-30T16:07:44;19.20;99.90
22607;DHT22;11470;20.968;105.834;2023-03-30T16:12:52;19.20;99.90
22607;DHT22;11470;20.968;105.834;2023-03-30T16:17:59;19.30;99.90
22607;DHT22;11470;20.968;105.834;2023-03-30T16:23:05;19.20;99.90
22607;DHT22;11470;20.968;105.834;2023-03-30T16:28:17;19.30;99.90
22607;DHT22;11470;20.968;105.834;2023-03-30T16:33:23;19.30;99.90
22607;DHT22;11470;20.968;105.834;2023-03-30T16:44:37;19.30;99.90
22607;DHT22;11470;20.968;105.834;2023-03-30T16:49:44;19.30;99.90
22607;DHT22;11470;20.968;105.834;2023-03-30T16:54:51;19.40;99.90
22607;DHT22;11470;20.968;105.834;2023-03-30T16:59:57;19.30;99.90
22607;DHT22;11470;20.968;105.834;2023-03-30T17:05:04;19.30;99.90
22607;DHT22;11470;20.968;105.834;2023-03-30T17:10:31;19.40;99.90
22607;DHT22;11470;20.968;105.834;2023-03-30T17:15:40;19.30;99.90
22607;DHT22;11470;20.968;105.834;2023-03-30T17:20:59;19.30;99.90
22607;DHT22;11470;20.968;105.834;2023-03-30T17:26:05;19.30;99.90
22607;DHT22;11470;20.968;105.834;2023-03-30T17:31:21;19.00;99.90
22607;DHT22;11470;20.968;105.834;2023-03-30T17:36:27;18.90;99.90
22607;DHT22;11470;20.968;105.834;2023-03-30T17:41:32;18.90;99.90
22607;DHT22;11470;20.968;105.834;2023-03-30T17:46:39;18.90;99.90
22607;DHT22;11470;20.968;105.834;2023-03-30T17:51:46;18.90;99.90
22607;DHT22;11470;20.968;105.834;2023-03-30T17:56:52;18.90;99.90
22607;DHT22;11470;20.968;105.834;2023-03-30T18:01:58;18.80;99.90
22607;DHT22;11470;20.968;105.834;2023-03-30T18:07:03;18.80;99.90
22607;DHT22;11470;20.968;105.834;2023-03-30T18:12:09;18.80;99.90
22607;DHT22;11470;20.968;105.834;2023-03-30T18:17:15;18.90;99.90
22607;DHT22;11470;20.968;105.834;2023-03-30T18:22:22;18.90;99.90
22607;DHT22;11470;20.968;105.834;2023-03-30T18:27:31;19.00;99.90
22607;DHT22;11470;20.968;105.834;2023-03-30T18:32:37;18.90;99.90
22607;DHT22;11470;20.968;105.834;2023-03-30T18:37:51;19.00;99.90
22607;DHT22;11470;20.968;105.834;2023-03-30T18:42:57;19.00;99.90
22607;DHT22;11470;20.968;105.834;2023-03-30T18:48:06;19.00;99.90
22607;DHT22;11470;20.968;105.834;2023-03-30T18:53:22;19.00;99.90
22607;DHT22;11470;20.968;105.834;2023-03-30T18:58:28;19.10;99.90
22607;DHT22;11470;20.968;105.834;2023-03-30T19:03:33;19.10;99.90
22607;DHT22;11470;20.968;105.834;2023-03-30T19:08:40;19.10;99.90
22607;DHT22;11470;20.968;105.834;2023-03-30T19:13:47;19.20;99.90
22607;DHT22;11470;20.968;105.834;2023-03-30T19:18:53;19.30;99.90
22607;DHT22;11470;20.968;105.834;2023-03-30T19:23:59;19.30;99.90
22607;DHT22;11470;20.968;105.834;2023-03-30T19:29:06;19.20;99.90
22607;DHT22;11470;20.968;105.834;2023-03-30T19:34:11;19.20;99.90
22607;DHT22;11470;20.968;105.834;2023-03-30T19:39:16;19.00;99.90
22607;DHT22;11470;20.968;105.834;2023-03-30T19:44:22;19.10;99.90
22607;DHT22;11470;20.968;105.834;2023-03-30T19:49:28;19.10;99.90
22607;DHT22;11470;20.968;105.834;2023-03-30T19:54:33;19.00;99.90
22607;DHT22;11470;20.968;105.834;2023-03-30T19:59:39;19.00;99.90
22607;DHT22;11470;20.968;105.834;2023-03-30T20:04:45;19.00;99.90
22607;DHT22;11470;20.968;105.834;2023-03-30T20:09:51;19.00;99.90
22607;DHT22;11470;20.968;105.834;2023-03-30T20:14:57;19.00;99.90
22607;DHT22;11470;20.968;105.834;2023-03-30T20:20:03;19.00;99.90
22607;DHT22;11470;20.968;105.834;2023-03-30T20:25:13;19.00;99.90
22607;DHT22;11470;20.968;105.834;2023-03-30T20:30:20;19.00;99.90
22607;DHT22;11470;20.968;105.834;2023-03-30T20:35:26;19.10;99.90
22607;DHT22;11470;20.968;105.834;2023-03-30T20:40:32;19.00;99.90
22607;DHT22;11470;20.968;105.834;2023-03-30T20:45:37;19.00;99.90
22607;DHT22;11470;20.968;105.834;2023-03-30T20:50:50;19.00;99.90
22607;DHT22;11470;20.968;105.834;2023-03-30T20:55:55;18.90;99.90
22607;DHT22;11470;20.968;105.834;2023-03-30T21:01:14;18.90;99.90
22607;DHT22;11470;20.968;105.834;2023-03-30T21:06:21;18.90;99.90
22607;DHT22;11470;20.968;105.834;2023-03-30T21:11:30;18.90;99.90
22607;DHT22;11470;20.968;105.834;2023-03-30T21:16:38;18.90;99.90
22607;DHT22;11470;20.968;105.834;2023-03-30T21:21:45;18.90;99.90
22607;DHT22;11470;20.968;105.834;2023-03-30T21:26:51;18.90;99.90
22607;DHT22;11470;20.968;105.834;2023-03-30T21:31:56;18.90;99.90
22607;DHT22;11470;20.968;105.834;2023-03-30T21:37:02;18.90;99.90
22607;DHT22;11470;20.968;105.834;2023-03-30T21:42:07;18.90;99.90
22607;DHT22;11470;20.968;105.834;2023-03-30T21:47:13;18.90;99.90
22607;DHT22;11470;20.968;105.834;2023-03-30T21:52:23;18.90;99.90
22607;DHT22;11470;20.968;105.834;2023-03-30T21:57:29;18.90;99.90
22607;DHT22;11470;20.968;105.834;2023-03-30T22:02:34;18.90;99.90
22607;DHT22;11470;20.968;105.834;2023-03-30T22:07:40;19.00;99.90
22607;DHT22;11470;20.968;105.834;2023-03-30T22:12:45;19.00;99.90
22607;DHT22;11470;20.968;105.834;2023-03-30T22:17:51;19.00;99.90
22607;DHT22;11470;20.968;105.834;2023-03-30T22:22:57;19.00;99.90
22607;DHT22;11470;20.968;105.834;2023-03-30T22:28:03;19.00;99.90
22607;DHT22;11470;20.968;105.834;2023-03-30T22:33:09;19.00;99.90
22607;DHT22;11470;20.968;105.834;2023-03-30T22:38:15;18.90;99.90
22607;DHT22;11470;20.968;105.834;2023-03-30T22:43:20;18.90;99.90
22607;DHT22;11470;20.968;105.834;2023-03-30T22:48:27;18.90;99.90
22607;DHT22;11470;20.968;105.834;2023-03-30T22:53:32;19.00;99.90
22607;DHT22;11470;20.968;105.834;2023-03-30T22:58:38;19.00;99.90
22607;DHT22;11470;20.968;105.834;2023-03-30T23:03:43;19.00;99.90
22607;DHT22;11470;20.968;105.834;2023-03-30T23:08:49;19.00;99.90
22607;DHT22;11470;20.968;105.834;2023-03-30T23:13:56;19.00;99.90
22607;DHT22;11470;20.968;105.834;2023-03-30T23:19:09;19.00;99.90
22607;DHT22;11470;20.968;105.834;2023-03-30T23:24:14;19.00;99.90
22607;DHT22;11470;20.968;105.834;2023-03-30T23:29:21;19.00;99.90
22607;DHT22;11470;20.968;105.834;2023-03-30T23:34:32;19.00;99.90
22607;DHT22;11470;20.968;105.834;2023-03-30T23:39:38;19.10;99.90
22607;DHT22;11470;20.968;105.834;2023-03-30T23:44:44;19.10;99.90
22607;DHT22;11470;20.968;105.834;2023-03-30T23:49:50;19.10;99.90
22607;DHT22;11470;20.968;105.834;2023-03-30T23:54:55;19.10;99.90
